sensor_id;sensor_type;location;lat;lon;timestamp;temperature;humidity
23499;DHT22;11926;48.120;11.562;2023-02-22T12:43:44;17.20;81.70
23499;DHT22;11926;48.120;11.562;2023-02-22T12:46:36;19.10;54.90
23499;DHT22;11926;48.120;11.562;2023-02-22T12:49:30;19.00;54.80
23499;DHT22;11926;48.120;11.562;2023-02-22T12:52:27;19.00;54.40
23499;DHT22;11926;48.120;11.562;2023-02-22T12:55:22;18.80;53.90
23499;DHT22;11926;48.120;11.562;2023-02-22T12:58:18;18.80;54.30
23499;DHT22;11926;48.120;11.562;2023-02-22T13:01:15;18.70;53.60
23499;DHT22;11926;48.120;11.562;2023-02-22T13:04:05;18.60;53.20
23499;DHT22;11926;48.120;11.562;2023-02-22T13:07:16;18.50;53.50
23499;DHT22;11926;48.120;11.562;2023-02-22T13:10:22;18.50;53.30
23499;DHT22;11926;48.120;11.562;2023-02-22T13:13:17;18.60;53.10
23499;DHT22;11926;48.120;11.562;2023-02-22T13:16:18;18.60;52.70
23499;DHT22;11926;48.120;11.562;2023-02-22T13:19:25;18.60;52.00
23499;DHT22;11926;48.120;11.562;2023-02-22T13:22:19;18.50;51.80
23499;DHT22;11926;48.120;11.562;2023-02-22T13:25:13;18.50;52.00
23499;DHT22;11926;48.120;11.562;2023-02-22T13:28:17;18.60;51.70
23499;DHT22;11926;48.120;11.562;2023-02-22T13:31:29;18.60;51.80
23499;DHT22;11926;48.120;11.562;2023-02-22T13:34:41;18.60;51.90
23499;DHT22;11926;48.120;11.562;2023-02-22T13:37:46;18.60;51.50
23499;DHT22;11926;48.120;11.562;2023-02-22T13:40:52;18.50;51.50
23499;DHT22;11926;48.120;11.562;2023-02-22T13:44:00;18.60;51.90
23499;DHT22;11926;48.120;11.562;2023-02-22T13:47:13;18.70;52.00
23499;DHT22;11926;48.120;11.562;2023-02-22T13:55:58;19.10;52.60
23499;DHT22;11926;48.120;11.562;2023-02-22T13:58:50;19.30;52.10
23499;DHT22;11926;48.120;11.562;2023-02-22T14:01:42;19.40;51.70
23499;DHT22;11926;48.120;11.562;2023-02-22T14:04:37;19.50;51.00
23499;DHT22;11926;48.120;11.562;2023-02-22T14:07:44;19.50;50.80
23499;DHT22;11926;48.120;11.562;2023-02-22T14:10:37;19.30;50.30
23499;DHT22;11926;48.120;11.562;2023-02-22T14:13:27;19.10;50.20
23499;DHT22;11926;48.120;11.562;2023-02-22T14:16:19;19.10;50.40
23499;DHT22;11926;48.120;11.562;2023-02-22T14:19:14;19.00;50.50
23499;DHT22;11926;48.120;11.562;2023-02-22T14:22:05;18.90;50.50
23499;DHT22;11926;48.120;11.562;2023-02-22T14:24:57;18.90;50.40
23499;DHT22;11926;48.120;11.562;2023-02-22T14:27:45;18.90;50.80
23499;DHT22;11926;48.120;11.562;2023-02-22T14:30:34;18.90;50.70
23499;DHT22;11926;48.120;11.562;2023-02-22T14:36:44;19.20;51.10
23499;DHT22;11926;48.120;11.562;2023-02-22T14:39:37;19.20;51.00
23499;DHT22;11926;48.120;11.562;2023-02-22T14:42:30;19.10;51.20
23499;DHT22;11926;48.120;11.562;2023-02-22T14:45:24;19.00;51.80
23499;DHT22;11926;48.120;11.562;2023-02-22T14:48:21;19.00;52.10
23499;DHT22;11926;48.120;11.562;2023-02-22T14:51:15;18.90;52.40
23499;DHT22;11926;48.120;11.562;2023-02-22T14:54:14;18.90;52.10
23499;DHT22;11926;48.120;11.562;2023-02-22T14:57:13;18.80;52.30
23499;DHT22;11926;48.120;11.562;2023-02-22T15:00:14;18.60;52.20
23499;DHT22;11926;48.120;11.562;2023-02-22T15:03:24;18.40;52.30
23499;DHT22;11926;48.120;11.562;2023-02-22T15:06:22;18.30;52.80
23499;DHT22;11926;48.120;11.562;2023-02-22T15:09:13;18.10;52.70
23499;DHT22;11926;48.120;11.562;2023-02-22T15:12:22;18.00;53.10
23499;DHT22;11926;48.120;11.562;2023-02-22T15:15:17;17.90;53.20
23499;DHT22;11926;48.120;11.562;2023-02-22T15:18:17;17.80;53.40
23499;DHT22;11926;48.120;11.562;2023-02-22T15:21:09;17.70;53.50
23499;DHT22;11926;48.120;11.562;2023-02-22T15:23:59;17.60;53.50
23499;DHT22;11926;48.120;11.562;2023-02-22T15:26:47;17.50;53.70
23499;DHT22;11926;48.120;11.562;2023-02-22T15:29:48;17.50;53.90
23499;DHT22;11926;48.120;11.562;2023-02-22T15:32:38;17.50;54.30
23499;DHT22;11926;48.120;11.562;2023-02-22T15:35:53;17.60;54.30
23499;DHT22;11926;48.120;11.562;2023-02-22T15:38:47;17.70;53.90
23499;DHT22;11926;48.120;11.562;2023-02-22T15:41:37;17.60;53.90
23499;DHT22;11926;48.120;11.562;2023-02-22T15:44:24;17.50;54.10
23499;DHT22;11926;48.120;11.562;2023-02-22T15:47:18;17.40;54.30
23499;DHT22;11926;48.120;11.562;2023-02-22T15:50:15;17.20;54.20
23499;DHT22;11926;48.120;11.562;2023-02-22T15:53:05;17.10;54.40
23499;DHT22;11926;48.120;11.562;2023-02-22T15:55:56;16.90;54.60
23499;DHT22;11926;48.120;11.562;2023-02-22T15:58:45;16.90;55.00
23499;DHT22;11926;48.120;11.562;2023-02-22T16:04:30;16.70;65.80
23499;DHT22;11926;48.120;11.562;2023-02-22T16:07:18;16.60;55.10
23499;DHT22;11926;48.120;11.562;2023-02-22T16:10:06;16.40;55.00
23499;DHT22;11926;48.120;11.562;2023-02-22T16:13:09;16.30;55.20
23499;DHT22;11926;48.120;11.562;2023-02-22T16:16:23;16.20;55.50
23499;DHT22;11926;48.120;11.562;2023-02-22T16:19:25;16.00;55.80
23499;DHT22;11926;48.120;11.562;2023-02-22T16:22:27;15.90;56.10
23499;DHT22;11926;48.120;11.562;2023-02-22T16:25:30;15.80;56.20
23499;DHT22;11926;48.120;11.562;2023-02-22T16:28:26;15.70;56.70
23499;DHT22;11926;48.120;11.562;2023-02-22T16:31:15;15.60;56.40
23499;DHT22;11926;48.120;11.562;2023-02-22T16:34:07;15.50;56.40
23499;DHT22;11926;48.120;11.562;2023-02-22T16:36:56;15.40;56.60
23499;DHT22;11926;48.120;11.562;2023-02-22T16:39:45;15.30;56.90
23499;DHT22;11926;48.120;11.562;2023-02-22T16:42:32;15.20;57.90
23499;DHT22;11926;48.120;11.562;2023-02-22T16:45:20;15.00;57.70
23499;DHT22;11926;48.120;11.562;2023-02-22T16:48:13;14.90;57.90
23499;DHT22;11926;48.120;11.562;2023-02-22T16:51:06;14.80;58.00
23499;DHT22;11926;48.120;11.562;2023-02-22T16:53:56;14.60;58.10
23499;DHT22;11926;48.120;11.562;2023-02-22T16:56:45;14.50;58.30
23499;DHT22;11926;48.120;11.562;2023-02-22T16:59:37;14.40;58.40
23499;DHT22;11926;48.120;11.562;2023-02-22T17:02:25;14.20;58.70
23499;DHT22;11926;48.120;11.562;2023-02-22T17:05:15;14.10;59.20
23499;DHT22;11926;48.120;11.562;2023-02-22T17:08:04;14.00;59.40
23499;DHT22;11926;48.120;11.562;2023-02-22T17:10:53;13.80;60.00
23499;DHT22;11926;48.120;11.562;2023-02-22T17:13:43;13.70;60.80
23499;DHT22;11926;48.120;11.562;2023-02-22T17:16:32;13.60;61.40
23499;DHT22;11926;48.120;11.562;2023-02-22T17:19:21;13.40;62.10
23499;DHT22;11926;48.120;11.562;2023-02-22T17:22:16;13.30;62.50
23499;DHT22;11926;48.120;11.562;2023-02-22T17:25:16;13.10;63.00
23499;DHT22;11926;48.120;11.562;2023-02-22T17:28:07;12.90;63.60
23499;DHT22;11926;48.120;11.562;2023-02-22T17:30:58;12.80;64.00
23499;DHT22;11926;48.120;11.562;2023-02-22T17:33:47;12.60;64.30
23499;DHT22;11926;48.120;11.562;2023-02-22T17:36:37;12.50;65.10
23499;DHT22;11926;48.120;11.562;2023-02-22T17:39:25;12.30;65.70
23499;DHT22;11926;48.120;11.562;2023-02-22T17:42:14;12.20;66.10
23499;DHT22;11926;48.120;11.562;2023-02-22T17:45:01;12.10;67.00
23499;DHT22;11926;48.120;11.562;2023-02-22T17:47:52;12.00;67.00
23499;DHT22;11926;48.120;11.562;2023-02-22T17:50:42;11.90;67.50
23499;DHT22;11926;48.120;11.562;2023-02-22T17:53:30;11.80;68.00
23499;DHT22;11926;48.120;11.562;2023-02-22T17:56:18;11.80;68.40
23499;DHT22;11926;48.120;11.562;2023-02-22T17:59:06;11.70;68.60
23499;DHT22;11926;48.120;11.562;2023-02-22T18:01:54;11.70;69.00
23499;DHT22;11926;48.120;11.562;2023-02-22T18:04:44;11.60;69.60
23499;DHT22;11926;48.120;11.562;2023-02-22T18:07:32;11.60;69.60
23499;DHT22;11926;48.120;11.562;2023-02-22T18:10:20;11.50;69.40
23499;DHT22;11926;48.120;11.562;2023-02-22T18:13:08;11.40;70.20
23499;DHT22;11926;48.120;11.562;2023-02-22T18:15:56;11.40;70.50
23499;DHT22;11926;48.120;11.562;2023-02-22T18:18:46;11.20;70.30
23499;DHT22;11926;48.120;11.562;2023-02-22T18:21:35;11.20;70.70
23499;DHT22;11926;48.120;11.562;2023-02-22T18:24:23;11.10;71.10
23499;DHT22;11926;48.120;11.562;2023-02-22T18:27:11;11.00;71.20
23499;DHT22;11926;48.120;11.562;2023-02-22T18:29:59;10.80;71.40
23499;DHT22;11926;48.120;11.562;2023-02-22T18:32:47;10.70;71.70
23499;DHT22;11926;48.120;11.562;2023-02-22T18:35:35;10.60;72.20
23499;DHT22;11926;48.120;11.562;2023-02-22T18:38:25;10.50;72.30
23499;DHT22;11926;48.120;11.562;2023-02-22T18:41:15;10.40;72.90
23499;DHT22;11926;48.120;11.562;2023-02-22T18:44:03;10.30;73.30
23499;DHT22;11926;48.120;11.562;2023-02-22T18:46:52;10.20;73.60
23499;DHT22;11926;48.120;11.562;2023-02-22T18:49:39;10.10;73.70
23499;DHT22;11926;48.120;11.562;2023-02-22T18:52:27;10.00;74.10
23499;DHT22;11926;48.120;11.562;2023-02-22T18:55:19;9.90;74.50
23499;DHT22;11926;48.120;11.562;2023-02-22T18:58:07;9.80;75.50
23499;DHT22;11926;48.120;11.562;2023-02-22T19:00:58;9.70;74.90
23499;DHT22;11926;48.120;11.562;2023-02-22T19:03:49;9.70;75.30
23499;DHT22;11926;48.120;11.562;2023-02-22T19:06:38;9.60;75.60
23499;DHT22;11926;48.120;11.562;2023-02-22T19:09:31;9.50;75.80
23499;DHT22;11926;48.120;11.562;2023-02-22T19:12:25;9.40;76.20
23499;DHT22;11926;48.120;11.562;2023-02-22T19:15:13;9.30;76.50
23499;DHT22;11926;48.120;11.562;2023-02-22T19:18:00;9.20;75.30
23499;DHT22;11926;48.120;11.562;2023-02-22T19:20:57;9.20;76.50
23499;DHT22;11926;48.120;11.562;2023-02-22T19:23:45;9.20;76.80
23499;DHT22;11926;48.120;11.562;2023-02-22T19:26:34;9.20;77.00
23499;DHT22;11926;48.120;11.562;2023-02-22T19:29:26;9.10;77.20
23499;DHT22;11926;48.120;11.562;2023-02-22T19:32:16;9.10;77.60
23499;DHT22;11926;48.120;11.562;2023-02-22T19:35:03;9.10;76.60
23499;DHT22;11926;48.120;11.562;2023-02-22T19:37:53;9.10;78.00
23499;DHT22;11926;48.120;11.562;2023-02-22T19:40:40;9.10;78.40
23499;DHT22;11926;48.120;11.562;2023-02-22T19:43:27;9.10;78.60
23499;DHT22;11926;48.120;11.562;2023-02-22T21:02:20;8.60;80.60
23499;DHT22;11926;48.120;11.562;2023-02-22T21:05:08;8.60;81.70
23499;DHT22;11926;48.120;11.562;2023-02-22T21:07:56;8.60;81.80
23499;DHT22;11926;48.120;11.562;2023-02-22T21:10:47;8.60;82.00
23499;DHT22;11926;48.120;11.562;2023-02-22T21:13:34;8.50;82.00
23499;DHT22;11926;48.120;11.562;2023-02-22T21:16:30;8.50;82.20
23499;DHT22;11926;48.120;11.562;2023-02-22T21:19:19;8.50;82.40
23499;DHT22;11926;48.120;11.562;2023-02-22T21:22:11;8.50;82.50
23499;DHT22;11926;48.120;11.562;2023-02-22T21:24:59;8.50;82.60
23499;DHT22;11926;48.120;11.562;2023-02-22T21:27:48;8.40;82.80
23499;DHT22;11926;48.120;11.562;2023-02-22T21:30:39;8.40;82.90
23499;DHT22;11926;48.120;11.562;2023-02-22T21:33:27;8.40;83.10
23499;DHT22;11926;48.120;11.562;2023-02-22T21:36:20;8.40;83.20
23499;DHT22;11926;48.120;11.562;2023-02-22T21:39:12;8.40;83.30
23499;DHT22;11926;48.120;11.562;2023-02-22T21:42:04;8.40;83.40
23499;DHT22;11926;48.120;11.562;2023-02-22T21:44:56;8.40;83.50
23499;DHT22;11926;48.120;11.562;2023-02-22T21:47:44;8.50;83.80
23499;DHT22;11926;48.120;11.562;2023-02-22T21:50:32;8.50;83.80
23499;DHT22;11926;48.120;11.562;2023-02-22T21:53:24;8.50;84.00
23499;DHT22;11926;48.120;11.562;2023-02-22T21:56:15;8.50;84.20
23499;DHT22;11926;48.120;11.562;2023-02-22T21:59:09;8.50;84.30
23499;DHT22;11926;48.120;11.562;2023-02-22T22:01:59;8.50;84.30
23499;DHT22;11926;48.120;11.562;2023-02-22T22:04:47;8.50;84.50
23499;DHT22;11926;48.120;11.562;2023-02-22T22:07:35;8.50;84.60
23499;DHT22;11926;48.120;11.562;2023-02-22T22:10:23;8.50;84.70
23499;DHT22;11926;48.120;11.562;2023-02-22T22:13:13;8.50;84.70
23499;DHT22;11926;48.120;11.562;2023-02-22T22:16:03;8.50;84.90
23499;DHT22;11926;48.120;11.562;2023-02-22T22:18:53;8.50;85.10
23499;DHT22;11926;48.120;11.562;2023-02-22T22:21:40;8.50;85.10
23499;DHT22;11926;48.120;11.562;2023-02-22T22:24:29;8.50;85.20
23499;DHT22;11926;48.120;11.562;2023-02-22T22:27:19;8.50;85.40
23499;DHT22;11926;48.120;11.562;2023-02-22T22:30:08;8.50;85.30
23499;DHT22;11926;48.120;11.562;2023-02-22T22:32:57;8.50;85.50
23499;DHT22;11926;48.120;11.562;2023-02-22T22:35:46;8.50;86.40
23499;DHT22;11926;48.120;11.562;2023-02-22T22:38:34;8.50;85.70
23499;DHT22;11926;48.120;11.562;2023-02-22T22:41:24;8.50;85.70
23499;DHT22;11926;48.120;11.562;2023-02-22T22:44:14;8.50;85.90
23499;DHT22;11926;48.120;11.562;2023-02-22T22:47:10;8.50;86.00
23499;DHT22;11926;48.120;11.562;2023-02-22T22:49:58;8.50;86.10
23499;DHT22;11926;48.120;11.562;2023-02-22T22:52:48;8.50;86.50
23499;DHT22;11926;48.120;11.562;2023-02-22T22:55:38;8.60;86.60
23499;DHT22;11926;48.120;11.562;2023-02-22T22:58:31;8.60;86.70
23499;DHT22;11926;48.120;11.562;2023-02-22T23:01:23;8.60;86.80
23499;DHT22;11926;48.120;11.562;2023-02-22T23:07:03;8.70;86.20
23499;DHT22;11926;48.120;11.562;2023-02-22T23:09:53;8.70;87.00
23499;DHT22;11926;48.120;11.562;2023-02-22T23:12:42;8.70;87.00
23499;DHT22;11926;48.120;11.562;2023-02-22T23:15:29;8.70;87.20
23499;DHT22;11926;48.120;11.562;2023-02-22T23:18:17;8.70;87.30
23499;DHT22;11926;48.120;11.562;2023-02-22T23:21:05;8.70;87.40
23499;DHT22;11926;48.120;11.562;2023-02-22T23:23:55;8.70;87.50
23499;DHT22;11926;48.120;11.562;2023-02-22T23:26:45;8.70;87.60
23499;DHT22;11926;48.120;11.562;2023-02-22T23:29:37;8.60;87.40
23499;DHT22;11926;48.120;11.562;2023-02-22T23:32:28;8.60;87.60
23499;DHT22;11926;48.120;11.562;2023-02-22T23:35:18;8.60;87.80
23499;DHT22;11926;48.120;11.562;2023-02-22T23:38:05;8.60;87.90
23499;DHT22;11926;48.120;11.562;2023-02-22T23:41:00;8.50;88.00
23499;DHT22;11926;48.120;11.562;2023-02-22T23:43:50;8.50;88.30
23499;DHT22;11926;48.120;11.562;2023-02-22T23:46:39;8.50;88.20
23499;DHT22;11926;48.120;11.562;2023-02-22T23:49:28;8.40;87.70
23499;DHT22;11926;48.120;11.562;2023-02-22T23:52:21;8.40;88.50
23499;DHT22;11926;48.120;11.562;2023-02-22T23:55:15;8.30;88.50
23499;DHT22;11926;48.120;11.562;2023-02-22T23:58:06;8.30;88.60
